Time;durP1;ratioP1;P1;durP2;ratioP2;P2;SDS_P1;SDS_P2;PMS_P1;PMS_P2;Temp;Humidity;BMP_temperature;BMP_pressure;BME280_temperature;BME280_humidity;BME280_pressure;Samples;Min_cycle;Max_cycle;Signal;HPM_P1;HPM_P2
2021/08/05 00:01:01;;;;;;;0.52;0.40;;;18.50;77.90;;;;;;5092360;28;20020;-78
2021/08/05 00:03:26;;;;;;;1.67;0.70;;;18.60;78.20;;;;;;5092433;28;20061;-78
2021/08/05 00:05:52;;;;;;;0.95;0.60;;;18.60;78.30;;;;;;5092150;28;20489;-78
2021/08/05 00:08:19;;;;;;;1.25;0.70;;;18.50;78.30;;;;;;5087050;28;20025;-78
2021/08/05 00:10:45;;;;;;;3.13;1.00;;;18.50;78.40;;;;;;5053955;28;20150;-77
2021/08/05 00:13:11;;;;;;;1.00;0.70;;;18.50;78.60;;;;;;5083394;28;20099;-78
2021/08/05 00:15:36;;;;;;;0.70;0.70;;;18.40;78.80;;;;;;5092089;28;20105;-78
2021/08/05 00:18:03;;;;;;;0.65;0.60;;;18.40;78.90;;;;;;5084065;28;20028;-78
2021/08/05 00:20:28;;;;;;;1.05;0.80;;;18.50;79.10;;;;;;5071977;28;20016;-78
2021/08/05 00:22:54;;;;;;;1.92;0.75;;;18.40;78.70;;;;;;5077434;28;20392;-78
2021/08/05 00:25:20;;;;;;;1.05;0.90;;;18.40;78.80;;;;;;5076017;28;20497;-77
2021/08/05 00:27:46;;;;;;;0.60;0.60;;;18.40;78.50;;;;;;5058031;28;20040;-77
2021/08/05 00:30:12;;;;;;;0.60;0.40;;;18.40;78.40;;;;;;5076222;28;20056;-77
2021/08/05 00:32:38;;;;;;;1.45;0.70;;;18.40;78.40;;;;;;5060134;28;20173;-77
2021/08/05 00:35:05;;;;;;;4.43;1.05;;;18.40;78.20;;;;;;5076965;28;20511;-78
2021/08/05 00:37:31;;;;;;;1.00;0.70;;;18.30;78.50;;;;;;5095940;28;20028;-77
2021/08/05 00:39:57;;;;;;;1.88;0.82;;;18.40;78.80;;;;;;5095858;28;20435;-77
2021/08/05 00:42:23;;;;;;;1.23;0.65;;;18.30;78.70;;;;;;5095483;28;20016;-77
2021/08/05 00:44:49;;;;;;;1.40;0.60;;;18.30;78.80;;;;;;5075597;28;20024;-78
2021/08/05 00:47:15;;;;;;;0.40;0.40;;;18.30;78.80;;;;;;5082903;28;20048;-78
2021/08/05 00:49:40;;;;;;;0.63;0.40;;;18.30;78.70;;;;;;5076602;28;20115;-77
2021/08/05 00:52:07;;;;;;;0.85;0.65;;;18.30;78.70;;;;;;5077370;28;20048;-77
2021/08/05 00:54:34;;;;;;;3.53;0.60;;;18.30;78.60;;;;;;5095052;28;20028;-78
2021/08/05 00:56:59;;;;;;;0.73;0.60;;;18.30;78.90;;;;;;5095709;28;20713;-78
2021/08/05 00:59:25;;;;;;;0.98;0.60;;;18.30;78.50;;;;;;5095582;28;20031;-77
2021/08/05 01:02:00;;;;;;;1.02;0.57;;;18.30;78.80;;;;;;5077398;28;20024;-79
2021/08/05 01:04:26;;;;;;;2.47;1.02;;;18.20;78.70;;;;;;5094829;28;20035;-79
2021/08/05 01:07:09;;;;;;;1.33;0.70;;;18.20;78.90;;;;;;5086254;28;20024;-78
2021/08/05 01:09:50;;;;;;;0.57;0.57;;;18.20;78.40;;;;;;5076471;28;20398;-78
2021/08/05 01:12:37;;;;;;;0.75;0.63;;;18.20;78.80;;;;;;5095474;28;20360;-78
2021/08/05 01:15:24;;;;;;;0.52;0.43;;;18.20;78.20;;;;;;5074956;28;20031;-77
2021/08/05 01:18:00;;;;;;;1.33;0.52;;;18.20;78.30;;;;;;5060785;28;20078;-78
2021/08/05 01:20:27;;;;;;;1.30;0.50;;;18.20;78.60;;;;;;5074888;28;20425;-77
2021/08/05 01:23:27;;;;;;;4.10;0.50;;;18.20;78.90;;;;;;5077587;28;20054;-77
2021/08/05 01:26:08;;;;;;;1.27;0.50;;;18.20;78.30;;;;;;5077011;28;20659;-78
2021/08/05 01:28:37;;;;;;;0.30;0.30;;;18.20;78.80;;;;;;5095163;28;20046;-77
2021/08/05 01:31:05;;;;;;;0.40;0.40;;;18.20;79.00;;;;;;5062637;28;20032;-77
2021/08/05 01:33:32;;;;;;;1.42;0.40;;;18.20;79.10;;;;;;5081271;28;20020;-77
2021/08/05 01:35:58;;;;;;;1.10;0.40;;;18.20;79.20;;;;;;5076855;28;20481;-78
2021/08/05 01:38:25;;;;;;;1.58;0.77;;;18.20;79.20;;;;;;5094087;28;20089;-78
2021/08/05 01:40:52;;;;;;;0.63;0.60;;;18.20;79.40;;;;;;5076691;28;20027;-78
2021/08/05 01:43:19;;;;;;;1.48;0.57;;;18.20;79.20;;;;;;5094133;28;20121;-78
2021/08/05 01:45:46;;;;;;;0.40;0.40;;;18.20;79.40;;;;;;5084409;28;20563;-78
2021/08/05 01:48:13;;;;;;;0.40;0.40;;;18.20;79.50;;;;;;5081122;28;20055;-78
2021/08/05 01:50:42;;;;;;;0.50;0.43;;;18.20;79.20;;;;;;5094663;28;20103;-77
2021/08/05 01:53:08;;;;;;;0.50;0.40;;;18.20;79.20;;;;;;5076111;28;20044;-78
2021/08/05 01:55:34;;;;;;;1.63;0.47;;;18.20;79.20;;;;;;5094574;28;20103;-78
2021/08/05 01:58:00;;;;;;;0.68;0.40;;;18.10;79.10;;;;;;5076378;28;20481;-78
2021/08/05 02:00:26;;;;;;;0.40;0.40;;;18.20;79.40;;;;;;5094595;28;20062;-77
2021/08/05 02:02:55;;;;;;;0.40;0.40;;;18.10;79.20;;;;;;5093881;28;20048;-77
2021/08/05 02:05:25;;;;;;;0.40;0.40;;;18.10;79.30;;;;;;5076366;28;20381;-77
2021/08/05 02:08:08;;;;;;;0.55;0.50;;;18.10;79.20;;;;;;5056362;28;20028;-77
2021/08/05 02:10:42;;;;;;;0.52;0.30;;;18.10;79.20;;;;;;5074025;28;20040;-77
2021/08/05 02:13:17;;;;;;;3.00;0.55;;;18.10;79.40;;;;;;5077757;28;20099;-77
2021/08/05 02:15:49;;;;;;;0.63;0.38;;;18.20;79.00;;;;;;5076053;28;20024;-77
2021/08/05 02:18:15;;;;;;;1.13;0.50;;;18.10;79.10;;;;;;5093276;28;20082;-77
2021/08/05 02:20:45;;;;;;;3.28;0.57;;;18.20;79.60;;;;;;5094124;28;20461;-78
2021/08/05 02:23:14;;;;;;;0.40;0.40;;;18.20;79.20;;;;;;5093464;28;20032;-76
2021/08/05 02:25:41;;;;;;;0.75;0.47;;;18.20;79.30;;;;;;5093942;28;20024;-76
2021/08/05 02:28:07;;;;;;;1.42;0.55;;;18.20;79.40;;;;;;5075828;28;20078;-76
2021/08/05 02:30:35;;;;;;;0.40;0.40;;;18.20;79.60;;;;;;5064776;28;20141;-76
2021/08/05 02:33:01;;;;;;;0.60;0.40;;;18.20;79.50;;;;;;5073565;28;20025;-77
2021/08/05 02:35:28;;;;;;;3.80;0.73;;;18.20;79.40;;;;;;5055645;28;20067;-77
2021/08/05 02:37:53;;;;;;;1.20;0.50;;;18.20;79.60;;;;;;5081371;28;20017;-77
2021/08/05 02:40:19;;;;;;;2.33;0.43;;;18.20;79.70;;;;;;5093646;28;20024;-77
2021/08/05 02:42:49;;;;;;;0.60;0.43;;;18.20;79.80;;;;;;5092964;28;20020;-77
2021/08/05 02:45:16;;;;;;;3.45;0.43;;;18.20;79.60;;;;;;5093433;28;20028;-76
2021/08/05 02:47:42;;;;;;;1.02;0.60;;;18.20;79.70;;;;;;5093021;28;20024;-77
2021/08/05 02:50:09;;;;;;;1.65;0.50;;;18.20;79.80;;;;;;5087942;28;20471;-77
2021/08/05 02:52:37;;;;;;;5.72;0.70;;;18.20;79.90;;;;;;5056537;28;20044;-77
2021/08/05 02:55:05;;;;;;;4.35;0.70;;;18.30;79.90;;;;;;5093247;28;20114;-77
2021/08/05 02:57:31;;;;;;;1.25;0.75;;;18.30;79.70;;;;;;5075141;28;20381;-77
2021/08/05 02:59:57;;;;;;;9.63;0.65;;;18.30;79.80;;;;;;5093258;28;20099;-77
2021/08/05 03:02:23;;;;;;;0.40;0.40;;;18.30;79.10;;;;;;5092948;28;20016;-77
2021/08/05 03:04:49;;;;;;;1.17;0.75;;;18.30;79.50;;;;;;5074907;28;20044;-76
2021/08/05 03:07:15;;;;;;;0.70;0.60;;;18.20;79.40;;;;;;5085507;28;20024;-77
2021/08/05 03:09:41;;;;;;;2.78;0.80;;;18.30;79.60;;;;;;5072759;28;20033;-77
2021/08/05 03:12:07;;;;;;;1.85;0.60;;;18.30;79.70;;;;;;5086418;28;20032;-77
2021/08/05 03:14:34;;;;;;;1.23;0.70;;;18.30;79.70;;;;;;5092888;28;20481;-77
2021/08/05 03:17:00;;;;;;;2.88;0.60;;;18.30;79.60;;;;;;5092133;28;20051;-76
2021/08/05 03:19:26;;;;;;;0.77;0.60;;;18.30;79.50;;;;;;5071510;28;20421;-76
2021/08/05 03:21:52;;;;;;;1.05;0.60;;;18.20;79.40;;;;;;5083237;28;20024;-77
2021/08/05 03:24:18;;;;;;;2.92;0.70;;;18.20;79.50;;;;;;5074668;28;20024;-77
2021/08/05 03:26:44;;;;;;;0.80;0.68;;;18.20;79.60;;;;;;5082552;28;20029;-78
2021/08/05 03:29:10;;;;;;;3.47;0.88;;;18.20;79.60;;;;;;5072529;28;20158;-77
2021/08/05 03:31:35;;;;;;;1.10;0.75;;;18.20;79.70;;;;;;5080447;28;20035;-77
2021/08/05 03:34:01;;;;;;;1.00;0.40;;;18.20;79.50;;;;;;5092603;28;20542;-77
2021/08/05 03:36:27;;;;;;;3.80;1.02;;;18.20;79.60;;;;;;5092573;28;20020;-77
2021/08/05 03:38:53;;;;;;;1.20;0.80;;;18.20;79.60;;;;;;5074528;28;20190;-77
2021/08/05 03:41:19;;;;;;;1.13;0.65;;;18.20;79.60;;;;;;5073541;28;20517;-77
2021/08/05 03:43:45;;;;;;;0.60;0.60;;;18.10;79.50;;;;;;5092471;28;20084;-78
2021/08/05 03:46:11;;;;;;;0.90;0.70;;;18.20;79.70;;;;;;5092366;28;20103;-77
2021/08/05 03:48:37;;;;;;;0.70;0.55;;;18.10;79.60;;;;;;5091705;28;20058;-77
2021/08/05 03:51:05;;;;;;;1.55;0.90;;;18.10;79.60;;;;;;5091704;28;20088;-77
2021/08/05 03:53:32;;;;;;;0.77;0.68;;;18.10;79.70;;;;;;5084237;28;20036;-77
2021/08/05 03:55:58;;;;;;;0.85;0.75;;;18.10;79.60;;;;;;5071811;28;20016;-76
2021/08/05 03:58:24;;;;;;;1.10;0.75;;;18.10;79.70;;;;;;5071718;28;20409;-78
2021/08/05 04:00:50;;;;;;;0.80;0.75;;;18.10;79.80;;;;;;5072949;28;20017;-77
2021/08/05 04:03:16;;;;;;;0.85;0.68;;;18.10;80.70;;;;;;5092176;28;20024;-76
2021/08/05 04:05:41;;;;;;;0.70;0.60;;;18.10;79.70;;;;;;5077507;28;20111;-77
2021/08/05 04:08:07;;;;;;;2.00;0.93;;;18.00;79.60;;;;;;5088084;28;20052;-76
2021/08/05 04:10:33;;;;;;;1.83;1.05;;;18.00;79.50;;;;;;5071799;28;20028;-76
2021/08/05 04:12:59;;;;;;;1.30;0.90;;;18.00;79.70;;;;;;5090278;28;20040;-77
2021/08/05 04:15:25;;;;;;;1.42;1.00;;;18.00;79.80;;;;;;5073779;28;20028;-76
2021/08/05 04:17:51;;;;;;;2.72;1.08;;;18.00;79.70;;;;;;5069371;28;20067;-77
2021/08/05 04:20:18;;;;;;;0.90;0.80;;;18.00;79.60;;;;;;5053830;28;20025;-77
2021/08/05 04:22:44;;;;;;;2.10;0.90;;;18.00;79.70;;;;;;5087894;28;20027;-77
2021/08/05 04:25:10;;;;;;;3.80;1.55;;;18.00;79.70;;;;;;5091839;28;20024;-76
2021/08/05 04:27:38;;;;;;;1.83;1.10;;;18.00;80.00;;;;;;5091874;28;20425;-76
2021/08/05 04:30:09;;;;;;;3.08;0.77;;;18.00;79.90;;;;;;5091724;28;20470;-77
2021/08/05 04:32:35;;;;;;;1.65;0.90;;;18.00;80.00;;;;;;5091270;28;20036;-76
2021/08/05 04:35:01;;;;;;;2.00;0.95;;;18.00;80.00;;;;;;5073440;28;20090;-76
2021/08/05 04:37:27;;;;;;;2.08;1.13;;;18.10;80.00;;;;;;5081971;28;20126;-75
2021/08/05 04:39:53;;;;;;;2.58;0.95;;;18.10;80.00;;;;;;5071303;28;20017;-76
2021/08/05 04:42:18;;;;;;;3.17;1.35;;;18.10;80.10;;;;;;5098872;28;20055;-76
2021/08/05 04:44:44;;;;;;;5.75;1.73;;;18.10;80.10;;;;;;5112070;28;20023;-76
2021/08/05 04:47:10;;;;;;;4.72;1.50;;;18.10;80.20;;;;;;5107710;28;20039;-76
2021/08/05 04:49:36;;;;;;;1.25;1.08;;;18.20;80.10;;;;;;5073467;28;20031;-76
2021/08/05 04:52:02;;;;;;;3.10;1.70;;;18.20;80.90;;;;;;5091327;28;20089;-76
2021/08/05 04:54:28;;;;;;;1.73;1.00;;;18.20;80.10;;;;;;5091877;28;20377;-76
2021/08/05 04:56:54;;;;;;;2.08;1.10;;;18.20;80.30;;;;;;5073537;28;20027;-76
2021/08/05 04:59:20;;;;;;;4.32;1.27;;;18.20;80.20;;;;;;5091528;28;20027;-75
2021/08/05 05:01:47;;;;;;;1.60;1.20;;;18.20;79.80;;;;;;5091091;28;20107;-76
2021/08/05 05:04:13;;;;;;;3.22;1.10;;;18.30;80.00;;;;;;5076782;28;20367;-76
2021/08/05 05:06:39;;;;;;;4.53;1.15;;;18.30;80.10;;;;;;5085961;28;20056;-76
2021/08/05 05:09:05;;;;;;;2.63;0.80;;;18.30;80.00;;;;;;5094433;28;20060;-76
2021/08/05 05:11:31;;;;;;;3.63;0.73;;;18.30;79.80;;;;;;5094514;28;20050;-76
2021/08/05 05:13:57;;;;;;;1.30;0.93;;;18.30;79.90;;;;;;5094373;28;20026;-76
2021/08/05 05:16:23;;;;;;;1.45;0.77;;;18.30;79.80;;;;;;5076885;28;20043;-76
2021/08/05 05:18:49;;;;;;;1.17;0.60;;;18.40;79.70;;;;;;5081213;28;20031;-76
2021/08/05 05:21:15;;;;;;;4.07;0.90;;;18.40;79.80;;;;;;5061988;28;20056;-76
2021/08/05 05:23:41;;;;;;;2.05;0.85;;;18.30;79.80;;;;;;5076900;28;20414;-76
2021/08/05 05:26:08;;;;;;;4.53;0.90;;;18.40;79.90;;;;;;5095299;28;20028;-77
2021/08/05 05:28:34;;;;;;;1.75;0.65;;;18.40;79.90;;;;;;5095006;28;20450;-77
2021/08/05 05:31:01;;;;;;;1.85;1.05;;;18.40;80.20;;;;;;5076077;28;20031;-76
2021/08/05 05:33:27;;;;;;;1.20;1.05;;;18.50;80.20;;;;;;5094692;28;20530;-77
2021/08/05 05:35:53;;;;;;;4.30;0.90;;;18.50;79.80;;;;;;5094901;28;20036;-77
2021/08/05 05:38:19;;;;;;;3.63;1.85;;;18.50;80.00;;;;;;5079858;28;20106;-77
2021/08/05 05:40:45;;;;;;;1.58;0.47;;;18.50;79.80;;;;;;5060395;28;20116;-76
2021/08/05 05:43:12;;;;;;;1.00;0.73;;;18.50;79.90;;;;;;5075531;28;20123;-76
2021/08/05 05:45:38;;;;;;;3.03;0.70;;;18.50;80.00;;;;;;5076770;28;20031;-76
2021/08/05 05:48:04;;;;;;;1.05;0.75;;;18.60;80.10;;;;;;5075555;28;20119;-76
2021/08/05 05:50:31;;;;;;;1.10;0.98;;;18.60;80.40;;;;;;5075726;28;20031;-76
2021/08/05 05:52:58;;;;;;;1.08;0.68;;;18.70;80.70;;;;;;5076313;28;20405;-76
2021/08/05 05:55:24;;;;;;;2.90;0.93;;;18.80;80.90;;;;;;5076397;28;20419;-77
2021/08/05 05:57:50;;;;;;;1.52;0.90;;;18.80;80.90;;;;;;5088030;28;20020;-76
2021/08/05 06:00:16;;;;;;;2.30;0.95;;;18.90;80.70;;;;;;5087530;28;20095;-76
2021/08/05 06:02:42;;;;;;;0.80;0.80;;;18.90;80.70;;;;;;5093241;28;20059;-76
2021/08/05 06:05:09;;;;;;;1.13;0.60;;;18.90;80.10;;;;;;5091810;28;20488;-76
2021/08/05 06:07:51;;;;;;;2.25;0.90;;;19.00;79.90;;;;;;5091391;28;20031;-76
2021/08/05 06:10:19;;;;;;;1.25;0.77;;;19.00;79.00;;;;;;5092578;28;20107;-76
2021/08/05 06:12:45;;;;;;;1.23;0.60;;;19.00;79.40;;;;;;5074657;28;20027;-76
2021/08/05 06:15:12;;;;;;;1.65;0.85;;;19.00;79.30;;;;;;5078453;28;20021;-76
2021/08/05 06:17:41;;;;;;;0.88;0.77;;;19.00;79.20;;;;;;5075633;28;20029;-76
2021/08/05 06:20:08;;;;;;;2.83;1.27;;;19.00;79.10;;;;;;5093372;28;20479;-76
2021/08/05 06:22:34;;;;;;;1.67;0.88;;;19.00;79.00;;;;;;5093870;28;20081;-76
2021/08/05 06:25:00;;;;;;;1.10;0.70;;;19.00;78.80;;;;;;5093809;28;20095;-77
2021/08/05 06:27:26;;;;;;;1.77;0.90;;;19.00;78.80;;;;;;5093810;28;20024;-74
2021/08/05 06:29:52;;;;;;;1.38;0.85;;;19.00;78.70;;;;;;5093918;28;20099;-75
2021/08/05 06:32:17;;;;;;;1.20;0.82;;;19.00;78.80;;;;;;5075642;28;20016;-75
2021/08/05 06:34:44;;;;;;;1.35;0.82;;;19.00;78.90;;;;;;5093882;28;20032;-78
2021/08/05 06:37:10;;;;;;;4.82;0.93;;;18.90;78.60;;;;;;5093888;28;20043;-75
2021/08/05 06:39:35;;;;;;;2.17;0.90;;;18.90;79.00;;;;;;5092924;28;20020;-75
2021/08/05 06:42:01;;;;;;;0.75;0.65;;;18.90;79.00;;;;;;5074999;28;20024;-75
2021/08/05 06:44:27;;;;;;;1.38;0.75;;;18.90;79.00;;;;;;5075414;28;20439;-76
2021/08/05 06:46:53;;;;;;;0.70;0.70;;;18.90;78.90;;;;;;5072450;28;20094;-75
2021/08/05 06:49:18;;;;;;;4.43;1.00;;;18.90;78.80;;;;;;5072377;28;20040;-75
2021/08/05 06:51:44;;;;;;;5.15;1.30;;;18.90;79.10;;;;;;5072214;28;20078;-75
2021/08/05 06:54:10;;;;;;;2.45;1.30;;;18.90;79.00;;;;;;5076412;28;20082;-75
2021/08/05 06:56:35;;;;;;;1.42;1.10;;;18.90;79.10;;;;;;5092219;28;20016;-75
2021/08/05 06:59:01;;;;;;;1.67;1.02;;;18.90;78.90;;;;;;5093177;28;20020;-75
2021/08/05 07:01:27;;;;;;;1.48;1.00;;;18.90;79.40;;;;;;5074776;28;20024;-75
2021/08/05 07:03:53;;;;;;;2.75;1.25;;;18.90;79.60;;;;;;5074715;28;20020;-75
2021/08/05 07:06:19;;;;;;;1.50;1.20;;;19.00;79.80;;;;;;5093050;28;20020;-75
2021/08/05 07:08:44;;;;;;;3.58;1.30;;;19.00;79.60;;;;;;5074858;28;20024;-78
2021/08/05 07:11:10;;;;;;;2.30;1.33;;;19.00;80.30;;;;;;5093059;28;20099;-76
2021/08/05 07:13:36;;;;;;;1.55;1.17;;;19.00;79.40;;;;;;5073821;28;20039;-75
2021/08/05 07:16:02;;;;;;;2.50;1.17;;;19.00;79.60;;;;;;5093100;28;20026;-76
2021/08/05 07:18:27;;;;;;;2.22;1.30;;;19.10;79.90;;;;;;5092692;28;20027;-76
2021/08/05 07:20:55;;;;;;;1.38;1.25;;;19.10;80.00;;;;;;5092819;28;20056;-76
2021/08/05 07:23:21;;;;;;;1.45;1.30;;;19.10;80.00;;;;;;5092907;28;20024;-75
2021/08/05 07:25:47;;;;;;;1.77;1.13;;;19.20;79.90;;;;;;5092799;28;20481;-76
2021/08/05 07:28:12;;;;;;;1.38;1.20;;;19.20;80.10;;;;;;5074417;28;20065;-76
2021/08/05 07:30:38;;;;;;;2.00;1.20;;;19.20;79.80;;;;;;5092230;28;20051;-75
2021/08/05 07:33:04;;;;;;;2.03;1.23;;;19.30;79.60;;;;;;5091931;28;20028;-76
2021/08/05 07:35:30;;;;;;;2.40;1.48;;;19.30;79.90;;;;;;5074102;28;20424;-76
2021/08/05 07:37:56;;;;;;;2.15;1.67;;;19.30;80.00;;;;;;5092473;28;20052;-75
2021/08/05 07:40:22;;;;;;;2.38;1.30;;;19.30;79.60;;;;;;5092366;28;20073;-75
2021/08/05 07:42:47;;;;;;;1.52;1.42;;;19.40;79.60;;;;;;5092360;28;20035;-76
2021/08/05 07:45:14;;;;;;;2.60;1.80;;;19.40;79.90;;;;;;5091430;28;20115;-75
2021/08/05 07:47:39;;;;;;;1.58;1.17;;;19.40;80.10;;;;;;5074990;28;20120;-76
2021/08/05 07:50:06;;;;;;;1.55;1.35;;;19.50;80.30;;;;;;5075078;28;20111;-76
2021/08/05 07:52:32;;;;;;;3.17;1.48;;;19.60;80.30;;;;;;5053601;28;20411;-75
2021/08/05 07:54:58;;;;;;;1.23;1.00;;;19.60;80.30;;;;;;5032813;28;20032;-77
2021/08/05 07:57:24;;;;;;;2.47;1.10;;;19.70;80.50;;;;;;5032867;28;20056;-76
2021/08/05 07:59:50;;;;;;;1.70;1.05;;;19.80;80.60;;;;;;5032853;28;20021;-76
2021/08/05 08:02:15;;;;;;;1.33;1.17;;;19.80;80.80;;;;;;5031502;28;20360;-76
2021/08/05 08:04:41;;;;;;;1.20;1.10;;;19.90;80.90;;;;;;5043186;28;20037;-75
2021/08/05 08:07:07;;;;;;;1.13;1.02;;;20.00;81.10;;;;;;5051090;28;20036;-76
2021/08/05 08:09:33;;;;;;;2.00;1.10;;;20.10;81.20;;;;;;5051498;28;20395;-76
2021/08/05 08:11:59;;;;;;;2.70;1.42;;;20.10;80.70;;;;;;5050855;28;20033;-76
2021/08/05 08:14:25;;;;;;;2.05;1.30;;;20.20;80.60;;;;;;5050305;28;20410;-76
2021/08/05 08:16:50;;;;;;;1.15;0.90;;;20.30;80.00;;;;;;5039866;28;20025;-76
2021/08/05 08:19:16;;;;;;;1.30;1.20;;;20.30;79.80;;;;;;5050802;28;20124;-77
2021/08/05 08:21:42;;;;;;;3.38;1.70;;;20.40;79.40;;;;;;5041872;28;20494;-76
2021/08/05 08:24:10;;;;;;;1.85;1.05;;;20.40;80.00;;;;;;5041793;28;20025;-76
2021/08/05 08:26:36;;;;;;;1.20;1.10;;;20.50;79.40;;;;;;5050791;28;20478;-76
2021/08/05 08:29:03;;;;;;;2.17;1.10;;;20.50;78.70;;;;;;5051947;28;20033;-76
2021/08/05 08:31:29;;;;;;;2.70;1.30;;;20.60;79.00;;;;;;5050501;28;20124;-76
2021/08/05 08:33:55;;;;;;;1.35;1.10;;;20.60;78.00;;;;;;5050782;28;20078;-76
2021/08/05 08:36:21;;;;;;;1.42;1.00;;;20.60;77.30;;;;;;5048309;28;20110;-76
2021/08/05 08:38:47;;;;;;;2.45;1.30;;;20.70;77.70;;;;;;5032515;28;20018;-76
2021/08/05 08:41:13;;;;;;;1.10;1.00;;;20.70;78.80;;;;;;5039595;28;20095;-76
2021/08/05 08:43:39;;;;;;;2.60;1.15;;;20.70;76.90;;;;;;5046059;28;20029;-76
2021/08/05 08:46:07;;;;;;;1.90;1.05;;;20.70;76.90;;;;;;5035128;28;20017;-76
2021/08/05 08:48:34;;;;;;;2.28;1.42;;;20.80;77.90;;;;;;5051029;28;20059;-76
2021/08/05 08:51:02;;;;;;;3.17;1.20;;;20.90;77.80;;;;;;5055477;28;20017;-76
2021/08/05 08:53:37;;;;;;;4.05;1.00;;;20.90;78.10;;;;;;5085437;28;20038;-76
2021/08/05 08:56:06;;;;;;;2.75;1.10;;;21.10;78.50;;;;;;5095955;28;20024;-75
2021/08/05 08:58:32;;;;;;;1.10;1.00;;;21.10;77.30;;;;;;5096360;28;20023;-75
2021/08/05 09:00:57;;;;;;;1.42;1.15;;;21.20;75.90;;;;;;5080293;28;20031;-75
2021/08/05 09:03:23;;;;;;;0.90;0.90;;;21.30;76.00;;;;;;5091241;28;20021;-75
2021/08/05 09:05:49;;;;;;;1.08;0.98;;;21.30;74.90;;;;;;5090737;28;20032;-74
2021/08/05 09:08:15;;;;;;;1.08;0.80;;;21.30;74.30;;;;;;5077872;28;20052;-75
2021/08/05 09:10:41;;;;;;;1.38;0.95;;;21.30;73.50;;;;;;5076979;28;20031;-76
2021/08/05 09:13:08;;;;;;;1.27;0.80;;;21.30;73.50;;;;;;5076715;28;20024;-75
2021/08/05 09:15:46;;;;;;;1.42;0.60;;;21.30;73.70;;;;;;5095459;28;20022;-76
2021/08/05 09:18:31;;;;;;;0.70;0.70;;;21.30;72.70;;;;;;5095880;28;20016;-76
2021/08/05 09:21:19;;;;;;;0.88;0.85;;;21.10;73.40;;;;;;5068653;28;20031;-76
2021/08/05 09:23:47;;;;;;;1.10;0.65;;;21.10;73.60;;;;;;5057558;28;20065;-76
2021/08/05 09:26:47;;;;;;;0.93;0.77;;;21.10;74.30;;;;;;5089592;28;20473;-71
2021/08/05 09:29:14;;;;;;;0.60;0.60;;;21.00;74.10;;;;;;5094347;28;20047;-71
2021/08/05 09:31:50;;;;;;;0.82;0.80;;;21.00;75.10;;;;;;5094961;28;20035;-71
2021/08/05 09:34:19;;;;;;;0.65;0.65;;;21.00;74.50;;;;;;5095465;28;20028;-71
2021/08/05 09:36:47;;;;;;;1.15;0.80;;;21.00;74.50;;;;;;5094573;28;20081;-71
2021/08/05 09:39:26;;;;;;;0.70;0.70;;;21.00;74.00;;;;;;5095480;28;20039;-71
2021/08/05 09:42:06;;;;;;;1.55;1.00;;;21.00;74.80;;;;;;5094720;28;20091;-72
2021/08/05 09:44:38;;;;;;;2.00;1.33;;;21.00;74.00;;;;;;5091245;28;20046;-73
2021/08/05 09:47:16;;;;;;;1.70;1.00;;;21.00;73.80;;;;;;5091393;28;20028;-71
2021/08/05 09:49:47;;;;;;;1.42;0.90;;;21.10;74.10;;;;;;5084405;28;20111;-72
2021/08/05 09:52:15;;;;;;;0.85;0.70;;;21.10;74.60;;;;;;5088788;28;20040;-72
2021/08/05 09:54:53;;;;;;;1.70;0.80;;;21.20;74.40;;;;;;5067417;28;20037;-72
2021/08/05 09:57:35;;;;;;;1.30;0.82;;;21.30;74.80;;;;;;5091854;28;20035;-72
2021/08/05 10:00:05;;;;;;;1.58;1.00;;;21.40;76.00;;;;;;5077118;28;20099;-72
2021/08/05 10:02:45;;;;;;;2.28;1.10;;;21.60;75.00;;;;;;5077159;28;20473;-73
2021/08/05 10:05:15;;;;;;;1.60;1.00;;;21.80;74.40;;;;;;5093129;28;20462;-72
2021/08/05 10:07:46;;;;;;;1.20;1.00;;;22.00;74.70;;;;;;5074374;28;20024;-74
2021/08/05 10:10:13;;;;;;;1.80;0.90;;;22.20;73.70;;;;;;5082167;28;20469;-74
2021/08/05 10:12:38;;;;;;;1.27;0.70;;;22.40;72.30;;;;;;5092212;28;20042;-72
2021/08/05 10:15:08;;;;;;;0.73;0.63;;;22.60;70.60;;;;;;5083101;28;20028;-71
2021/08/05 10:17:36;;;;;;;1.80;0.90;;;22.80;69.60;;;;;;5077787;28;20107;-72
2021/08/05 10:20:04;;;;;;;1.25;0.70;;;22.80;68.80;;;;;;5087585;28;20107;-72
2021/08/05 10:22:31;;;;;;;1.25;0.60;;;22.80;68.30;;;;;;5094411;28;20016;-71
2021/08/05 10:24:58;;;;;;;0.55;0.50;;;22.90;68.60;;;;;;5076417;28;20478;-71
2021/08/05 10:27:25;;;;;;;1.30;0.90;;;22.80;67.90;;;;;;5094456;28;20028;-72
2021/08/05 10:29:51;;;;;;;1.95;0.70;;;22.80;66.00;;;;;;5094638;28;20031;-71
2021/08/05 10:32:19;;;;;;;1.20;1.02;;;22.70;66.40;;;;;;5094625;28;20031;-72
2021/08/05 10:34:45;;;;;;;1.55;0.90;;;22.60;65.70;;;;;;5093530;28;20020;-71
2021/08/05 10:37:12;;;;;;;2.85;0.93;;;22.50;65.80;;;;;;5076340;28;20412;-71
2021/08/05 10:39:43;;;;;;;1.58;0.77;;;22.40;67.20;;;;;;5092793;28;20027;-72
2021/08/05 10:42:15;;;;;;;3.08;1.25;;;22.40;68.10;;;;;;5094281;28;20347;-72
2021/08/05 10:44:41;;;;;;;1.58;0.73;;;22.40;68.80;;;;;;5085149;28;20070;-71
2021/08/05 10:47:14;;;;;;;1.92;1.25;;;22.40;69.30;;;;;;5073981;28;20036;-71
2021/08/05 10:49:40;;;;;;;1.40;0.90;;;22.50;69.00;;;;;;5074161;28;20031;-71
2021/08/05 10:52:06;;;;;;;1.50;1.08;;;22.50;69.00;;;;;;5073720;28;20049;-71
2021/08/05 10:54:48;;;;;;;1.02;0.93;;;22.50;69.10;;;;;;5073737;28;20031;-71
2021/08/05 10:57:23;;;;;;;3.95;0.98;;;22.50;68.80;;;;;;5074559;28;20369;-72
2021/08/05 11:00:13;;;;;;;0.80;0.80;;;22.60;69.00;;;;;;5073911;28;20078;-70
2021/08/05 11:02:49;;;;;;;1.25;0.95;;;22.70;69.00;;;;;;5080030;28;20081;-73
2021/08/05 11:05:27;;;;;;;1.13;0.55;;;22.70;68.60;;;;;;5092874;28;20024;-70
2021/08/05 11:07:54;;;;;;;0.95;0.88;;;22.70;67.20;;;;;;5077704;28;20028;-72
2021/08/05 11:10:25;;;;;;;4.43;1.55;;;22.70;66.90;;;;;;5093101;28;20032;-72
2021/08/05 11:12:57;;;;;;;1.15;0.80;;;22.70;68.60;;;;;;5092359;28;20020;-71
2021/08/05 11:15:26;;;;;;;2.58;0.80;;;22.70;69.00;;;;;;5093113;28;20028;-71
2021/08/05 11:18:10;;;;;;;2.22;0.90;;;22.70;69.70;;;;;;5093223;28;20017;-71
2021/08/05 11:20:38;;;;;;;1.23;0.80;;;22.80;68.80;;;;;;5093647;28;20043;-71
2021/08/05 11:23:05;;;;;;;2.95;0.80;;;22.80;67.90;;;;;;5093646;28;20035;-71
2021/08/05 11:25:52;;;;;;;2.13;0.95;;;22.80;67.80;;;;;;5093322;28;20571;-71
2021/08/05 11:28:26;;;;;;;1.48;0.98;;;22.90;66.40;;;;;;5093869;28;20024;-71
2021/08/05 11:31:01;;;;;;;2.80;1.00;;;22.90;67.50;;;;;;5093416;28;20055;-71
2021/08/05 11:33:42;;;;;;;1.17;1.08;;;22.80;65.70;;;;;;5093376;28;20028;-71
2021/08/05 11:36:15;;;;;;;1.08;0.88;;;22.80;66.20;;;;;;5088804;28;20359;-71
2021/08/05 11:39:07;;;;;;;1.02;0.93;;;22.70;66.40;;;;;;5092745;28;20104;-70
2021/08/05 11:41:51;;;;;;;3.28;1.20;;;22.80;68.20;;;;;;5075121;28;20439;-71
2021/08/05 11:44:27;;;;;;;0.65;0.65;;;22.80;67.60;;;;;;5091311;28;20055;-71
2021/08/05 11:47:05;;;;;;;1.30;0.77;;;22.90;66.90;;;;;;5073257;28;20028;-71
2021/08/05 11:49:50;;;;;;;1.90;1.20;;;23.00;67.50;;;;;;5072657;28;20098;-71
2021/08/05 11:52:28;;;;;;;3.00;1.00;;;23.00;66.80;;;;;;5091733;28;20036;-71
2021/08/05 11:55:14;;;;;;;2.30;1.10;;;23.20;67.70;;;;;;5092760;28;20028;-71
2021/08/05 11:57:44;;;;;;;1.35;1.10;;;23.20;66.30;;;;;;5092458;28;20031;-71
2021/08/05 12:00:13;;;;;;;1.20;1.00;;;23.30;65.90;;;;;;5093308;28;20021;-71
2021/08/05 12:02:40;;;;;;;1.23;0.90;;;23.30;65.10;;;;;;5092371;28;20493;-71
2021/08/05 12:05:06;;;;;;;2.08;1.00;;;23.40;65.70;;;;;;5091857;28;20028;-71
2021/08/05 12:07:34;;;;;;;2.10;1.20;;;23.40;64.00;;;;;;5071167;28;20032;-71
2021/08/05 12:10:09;;;;;;;1.30;1.20;;;23.40;63.10;;;;;;5072665;28;20016;-71
2021/08/05 12:12:43;;;;;;;1.30;0.98;;;23.30;64.30;;;;;;5086261;28;20046;-71
2021/08/05 12:15:11;;;;;;;0.90;0.90;;;23.40;65.10;;;;;;5082578;28;20182;-71
2021/08/05 12:17:46;;;;;;;2.00;1.13;;;23.40;64.60;;;;;;5084554;28;20081;-71
2021/08/05 12:20:27;;;;;;;1.77;1.20;;;23.50;65.70;;;;;;5092042;28;20016;-71
2021/08/05 12:22:55;;;;;;;2.53;1.20;;;23.50;64.20;;;;;;5074275;28;20028;-71
2021/08/05 12:25:29;;;;;;;1.35;1.20;;;23.60;65.60;;;;;;5083043;28;20358;-72
2021/08/05 12:28:10;;;;;;;1.58;1.30;;;23.70;66.90;;;;;;5074493;28;20152;-71
2021/08/05 12:30:42;;;;;;;1.25;1.15;;;23.80;64.90;;;;;;5076823;28;20057;-72
2021/08/05 12:33:14;;;;;;;3.20;1.50;;;23.90;64.80;;;;;;5091295;28;20473;-71
2021/08/05 12:35:41;;;;;;;2.00;1.33;;;24.10;65.60;;;;;;5090507;28;20032;-71
2021/08/05 12:38:14;;;;;;;1.45;1.30;;;24.20;66.40;;;;;;5092851;28;20027;-71
2021/08/05 12:40:44;;;;;;;1.48;1.33;;;24.40;64.40;;;;;;5092348;28;20020;-72
2021/08/05 12:43:12;;;;;;;1.33;1.23;;;24.50;65.00;;;;;;5073964;28;20016;-71
2021/08/05 12:45:41;;;;;;;2.00;1.45;;;24.70;65.80;;;;;;5092582;28;20024;-72
2021/08/05 12:48:08;;;;;;;1.50;1.23;;;24.90;67.00;;;;;;5074106;28;20039;-71
2021/08/05 12:50:41;;;;;;;2.35;1.20;;;25.00;65.50;;;;;;5074223;28;20032;-71
2021/08/05 12:53:07;;;;;;;1.80;1.30;;;25.20;62.90;;;;;;5092293;28;20118;-71
2021/08/05 12:55:46;;;;;;;1.75;1.40;;;25.40;63.10;;;;;;5074266;28;20114;-71